sensor_id;sensor_type;location;lat;lon;timestamp;pressure;altitude;pressure_sealevel;temperature
41940;BMP180;23057;48.554;14.454;2023-05-07T00:01:24;93810.00;;;17.60
41940;BMP180;23057;48.554;14.454;2023-05-07T00:03:55;93814.00;;;17.60
41940;BMP180;23057;48.554;14.454;2023-05-07T00:06:25;93822.00;;;17.50
41940;BMP180;23057;48.554;14.454;2023-05-07T00:08:59;93809.00;;;17.50
41940;BMP180;23057;48.554;14.454;2023-05-07T00:11:31;93823.00;;;17.50
41940;BMP180;23057;48.554;14.454;2023-05-07T00:14:03;93817.00;;;17.50
41940;BMP180;23057;48.554;14.454;2023-05-07T00:16:34;93821.00;;;17.40
41940;BMP180;23057;48.554;14.454;2023-05-07T00:19:05;93820.00;;;17.40
41940;BMP180;23057;48.554;14.454;2023-05-07T00:21:35;93826.00;;;17.30
41940;BMP180;23057;48.554;14.454;2023-05-07T00:24:06;93825.00;;;17.30
41940;BMP180;23057;48.554;14.454;2023-05-07T00:26:37;93826.00;;;17.20
41940;BMP180;23057;48.554;14.454;2023-05-07T00:29:08;93827.00;;;17.20
41940;BMP180;23057;48.554;14.454;2023-05-07T00:31:38;93825.00;;;17.20
41940;BMP180;23057;48.554;14.454;2023-05-07T00:34:09;93837.00;;;17.20
41940;BMP180;23057;48.554;14.454;2023-05-07T00:36:40;93828.00;;;17.10
41940;BMP180;23057;48.554;14.454;2023-05-07T00:39:10;93833.00;;;17.00
41940;BMP180;23057;48.554;14.454;2023-05-07T00:41:41;93832.00;;;17.00
41940;BMP180;23057;48.554;14.454;2023-05-07T00:44:13;93836.00;;;17.00
41940;BMP180;23057;48.554;14.454;2023-05-07T00:46:44;93837.00;;;16.90
41940;BMP180;23057;48.554;14.454;2023-05-07T00:49:15;93830.00;;;16.90
41940;BMP180;23057;48.554;14.454;2023-05-07T00:51:47;93835.00;;;16.90
41940;BMP180;23057;48.554;14.454;2023-05-07T00:54:18;93829.00;;;16.90
41940;BMP180;23057;48.554;14.454;2023-05-07T00:56:50;93829.00;;;16.90
41940;BMP180;23057;48.554;14.454;2023-05-07T00:59:21;93835.00;;;16.90
41940;BMP180;23057;48.554;14.454;2023-05-07T01:01:52;93834.00;;;17.00
41940;BMP180;23057;48.554;14.454;2023-05-07T01:04:23;93834.00;;;17.00
41940;BMP180;23057;48.554;14.454;2023-05-07T01:06:55;93836.00;;;17.10
41940;BMP180;23057;48.554;14.454;2023-05-07T01:09:28;93834.00;;;17.10
41940;BMP180;23057;48.554;14.454;2023-05-07T01:11:59;93842.00;;;17.20
41940;BMP180;23057;48.554;14.454;2023-05-07T01:17:10;93841.00;;;17.20
41940;BMP180;23057;48.554;14.454;2023-05-07T01:19:41;93837.00;;;17.30
41940;BMP180;23057;48.554;14.454;2023-05-07T01:22:14;93840.00;;;17.30
41940;BMP180;23057;48.554;14.454;2023-05-07T01:24:47;93838.00;;;17.40
41940;BMP180;23057;48.554;14.454;2023-05-07T01:27:18;93845.00;;;17.40
41940;BMP180;23057;48.554;14.454;2023-05-07T01:29:49;93840.00;;;17.50
41940;BMP180;23057;48.554;14.454;2023-05-07T01:32:35;93845.00;;;17.50
41940;BMP180;23057;48.554;14.454;2023-05-07T01:35:20;93841.00;;;17.50
41940;BMP180;23057;48.554;14.454;2023-05-07T01:37:54;93844.00;;;17.60
41940;BMP180;23057;48.554;14.454;2023-05-07T01:40:25;93849.00;;;17.60
41940;BMP180;23057;48.554;14.454;2023-05-07T01:42:57;93845.00;;;17.60
41940;BMP180;23057;48.554;14.454;2023-05-07T01:45:30;93847.00;;;17.70
41940;BMP180;23057;48.554;14.454;2023-05-07T01:48:02;93842.00;;;17.70
41940;BMP180;23057;48.554;14.454;2023-05-07T01:50:33;93847.00;;;17.70
41940;BMP180;23057;48.554;14.454;2023-05-07T01:53:06;93852.00;;;17.70
41940;BMP180;23057;48.554;14.454;2023-05-07T01:55:37;93848.00;;;17.70
41940;BMP180;23057;48.554;14.454;2023-05-07T01:58:07;93851.00;;;17.70
41940;BMP180;23057;48.554;14.454;2023-05-07T02:00:39;93850.00;;;17.80
41940;BMP180;23057;48.554;14.454;2023-05-07T02:03:11;93845.00;;;17.70
41940;BMP180;23057;48.554;14.454;2023-05-07T02:05:41;93839.00;;;17.70
41940;BMP180;23057;48.554;14.454;2023-05-07T02:08:12;93845.00;;;17.70
41940;BMP180;23057;48.554;14.454;2023-05-07T02:10:43;93850.00;;;17.70
41940;BMP180;23057;48.554;14.454;2023-05-07T02:13:14;93846.00;;;17.70
41940;BMP180;23057;48.554;14.454;2023-05-07T02:15:44;93848.00;;;17.70
41940;BMP180;23057;48.554;14.454;2023-05-07T02:18:19;93845.00;;;17.70
41940;BMP180;23057;48.554;14.454;2023-05-07T02:20:50;93842.00;;;17.70
41940;BMP180;23057;48.554;14.454;2023-05-07T02:23:20;93846.00;;;17.70
41940;BMP180;23057;48.554;14.454;2023-05-07T02:25:51;93851.00;;;17.70
41940;BMP180;23057;48.554;14.454;2023-05-07T02:28:22;93844.00;;;17.70
41940;BMP180;23057;48.554;14.454;2023-05-07T02:30:53;93846.00;;;17.70
41940;BMP180;23057;48.554;14.454;2023-05-07T02:33:23;93853.00;;;17.70
41940;BMP180;23057;48.554;14.454;2023-05-07T02:35:55;93855.00;;;17.70
41940;BMP180;23057;48.554;14.454;2023-05-07T02:38:25;93852.00;;;17.70
41940;BMP180;23057;48.554;14.454;2023-05-07T02:40:56;93853.00;;;17.80
41940;BMP180;23057;48.554;14.454;2023-05-07T02:43:27;93859.00;;;17.80
41940;BMP180;23057;48.554;14.454;2023-05-07T02:46:05;93855.00;;;17.80
41940;BMP180;23057;48.554;14.454;2023-05-07T02:48:37;93843.00;;;17.70
41940;BMP180;23057;48.554;14.454;2023-05-07T02:51:08;93841.00;;;17.70
41940;BMP180;23057;48.554;14.454;2023-05-07T02:53:39;93845.00;;;17.60
41940;BMP180;23057;48.554;14.454;2023-05-07T02:56:09;93843.00;;;17.60
41940;BMP180;23057;48.554;14.454;2023-05-07T02:58:40;93845.00;;;17.60
41940;BMP180;23057;48.554;14.454;2023-05-07T03:01:12;93835.00;;;17.50
41940;BMP180;23057;48.554;14.454;2023-05-07T03:03:44;93834.00;;;17.50
41940;BMP180;23057;48.554;14.454;2023-05-07T03:06:15;93832.00;;;17.50
41940;BMP180;23057;48.554;14.454;2023-05-07T03:08:45;93834.00;;;17.50
41940;BMP180;23057;48.554;14.454;2023-05-07T03:11:16;93832.00;;;17.50
41940;BMP180;23057;48.554;14.454;2023-05-07T03:13:47;93841.00;;;17.50
41940;BMP180;23057;48.554;14.454;2023-05-07T03:16:19;93846.00;;;17.50
41940;BMP180;23057;48.554;14.454;2023-05-07T03:18:50;93841.00;;;17.50
41940;BMP180;23057;48.554;14.454;2023-05-07T03:21:20;93840.00;;;17.50
41940;BMP180;23057;48.554;14.454;2023-05-07T03:23:51;93831.00;;;17.50
41940;BMP180;23057;48.554;14.454;2023-05-07T03:26:22;93829.00;;;17.50
41940;BMP180;23057;48.554;14.454;2023-05-07T03:28:53;93837.00;;;17.40
41940;BMP180;23057;48.554;14.454;2023-05-07T03:31:24;93840.00;;;17.40
41940;BMP180;23057;48.554;14.454;2023-05-07T03:33:56;93835.00;;;17.40
41940;BMP180;23057;48.554;14.454;2023-05-07T03:36:28;93837.00;;;17.40
41940;BMP180;23057;48.554;14.454;2023-05-07T03:38:58;93833.00;;;17.40
41940;BMP180;23057;48.554;14.454;2023-05-07T03:41:29;93826.00;;;17.40
41940;BMP180;23057;48.554;14.454;2023-05-07T03:44:00;93843.00;;;17.40
41940;BMP180;23057;48.554;14.454;2023-05-07T03:46:31;93829.00;;;17.50
41940;BMP180;23057;48.554;14.454;2023-05-07T03:49:03;93841.00;;;17.60
41940;BMP180;23057;48.554;14.454;2023-05-07T03:51:34;93845.00;;;17.60
41940;BMP180;23057;48.554;14.454;2023-05-07T03:54:06;93841.00;;;17.60
41940;BMP180;23057;48.554;14.454;2023-05-07T03:56:37;93849.00;;;17.50
41940;BMP180;23057;48.554;14.454;2023-05-07T03:59:08;93848.00;;;17.60
41940;BMP180;23057;48.554;14.454;2023-05-07T04:01:39;93867.00;;;17.60
41940;BMP180;23057;48.554;14.454;2023-05-07T04:04:10;93862.00;;;17.60
41940;BMP180;23057;48.554;14.454;2023-05-07T04:06:41;93863.00;;;17.60
41940;BMP180;23057;48.554;14.454;2023-05-07T04:09:12;93862.00;;;17.70
41940;BMP180;23057;48.554;14.454;2023-05-07T04:11:42;93863.00;;;17.60
41940;BMP180;23057;48.554;14.454;2023-05-07T04:14:13;93862.00;;;17.60
41940;BMP180;23057;48.554;14.454;2023-05-07T04:16:44;93866.00;;;17.50
41940;BMP180;23057;48.554;14.454;2023-05-07T04:19:14;93855.00;;;17.50
41940;BMP180;23057;48.554;14.454;2023-05-07T04:21:45;93866.00;;;17.40
41940;BMP180;23057;48.554;14.454;2023-05-07T04:24:16;93859.00;;;17.30
41940;BMP180;23057;48.554;14.454;2023-05-07T04:26:47;93856.00;;;17.30
41940;BMP180;23057;48.554;14.454;2023-05-07T04:29:18;93862.00;;;17.30
41940;BMP180;23057;48.554;14.454;2023-05-07T04:31:48;93861.00;;;17.30
41940;BMP180;23057;48.554;14.454;2023-05-07T04:34:19;93868.00;;;17.30
41940;BMP180;23057;48.554;14.454;2023-05-07T04:36:51;93874.00;;;17.40
41940;BMP180;23057;48.554;14.454;2023-05-07T04:39:22;93866.00;;;17.50
41940;BMP180;23057;48.554;14.454;2023-05-07T04:41:52;93878.00;;;17.50
41940;BMP180;23057;48.554;14.454;2023-05-07T04:44:23;93872.00;;;17.50
41940;BMP180;23057;48.554;14.454;2023-05-07T04:46:55;93877.00;;;17.40
41940;BMP180;23057;48.554;14.454;2023-05-07T04:49:25;93877.00;;;17.40
41940;BMP180;23057;48.554;14.454;2023-05-07T04:51:56;93883.00;;;17.30
41940;BMP180;23057;48.554;14.454;2023-05-07T04:54:27;93889.00;;;17.30
41940;BMP180;23057;48.554;14.454;2023-05-07T04:56:58;93881.00;;;17.20
41940;BMP180;23057;48.554;14.454;2023-05-07T04:59:29;93881.00;;;17.20
41940;BMP180;23057;48.554;14.454;2023-05-07T05:01:59;93885.00;;;17.20
41940;BMP180;23057;48.554;14.454;2023-05-07T05:04:30;93875.00;;;17.20
41940;BMP180;23057;48.554;14.454;2023-05-07T05:07:01;93874.00;;;17.20
41940;BMP180;23057;48.554;14.454;2023-05-07T05:09:33;93884.00;;;17.20
41940;BMP180;23057;48.554;14.454;2023-05-07T05:12:04;93886.00;;;17.30
41940;BMP180;23057;48.554;14.454;2023-05-07T05:14:37;93892.00;;;17.30
41940;BMP180;23057;48.554;14.454;2023-05-07T05:17:08;93894.00;;;17.40
41940;BMP180;23057;48.554;14.454;2023-05-07T05:19:38;93895.00;;;17.40
41940;BMP180;23057;48.554;14.454;2023-05-07T05:22:09;93893.00;;;17.40
41940;BMP180;23057;48.554;14.454;2023-05-07T05:24:40;93900.00;;;17.50
41940;BMP180;23057;48.554;14.454;2023-05-07T05:27:11;93893.00;;;17.50
41940;BMP180;23057;48.554;14.454;2023-05-07T05:29:41;93903.00;;;17.60
41940;BMP180;23057;48.554;14.454;2023-05-07T05:32:12;93900.00;;;17.60
41940;BMP180;23057;48.554;14.454;2023-05-07T05:34:46;93903.00;;;17.80
41940;BMP180;23057;48.554;14.454;2023-05-07T05:37:16;93900.00;;;17.90
41940;BMP180;23057;48.554;14.454;2023-05-07T05:39:47;93897.00;;;18.00
41940;BMP180;23057;48.554;14.454;2023-05-07T05:42:18;93899.00;;;18.20
41940;BMP180;23057;48.554;14.454;2023-05-07T05:44:48;93890.00;;;18.20
41940;BMP180;23057;48.554;14.454;2023-05-07T05:47:19;93898.00;;;18.30
41940;BMP180;23057;48.554;14.454;2023-05-07T05:49:50;93893.00;;;18.40
41940;BMP180;23057;48.554;14.454;2023-05-07T05:52:21;93898.00;;;18.60
41940;BMP180;23057;48.554;14.454;2023-05-07T05:54:54;93895.00;;;18.80
41940;BMP180;23057;48.554;14.454;2023-05-07T05:57:25;93894.00;;;19.00
41940;BMP180;23057;48.554;14.454;2023-05-07T05:59:56;93896.00;;;19.30
41940;BMP180;23057;48.554;14.454;2023-05-07T06:02:26;93894.00;;;19.50
41940;BMP180;23057;48.554;14.454;2023-05-07T06:04:57;93896.00;;;19.70
41940;BMP180;23057;48.554;14.454;2023-05-07T06:07:28;93899.00;;;20.00
41940;BMP180;23057;48.554;14.454;2023-05-07T06:09:59;93896.00;;;20.20
41940;BMP180;23057;48.554;14.454;2023-05-07T06:12:29;93896.00;;;20.40
41940;BMP180;23057;48.554;14.454;2023-05-07T06:15:00;93895.00;;;20.60
41940;BMP180;23057;48.554;14.454;2023-05-07T06:17:31;93899.00;;;20.90
41940;BMP180;23057;48.554;14.454;2023-05-07T06:20:03;93895.00;;;21.10
41940;BMP180;23057;48.554;14.454;2023-05-07T06:22:34;93899.00;;;21.30
41940;BMP180;23057;48.554;14.454;2023-05-07T06:25:05;93891.00;;;21.40
41940;BMP180;23057;48.554;14.454;2023-05-07T06:27:36;93897.00;;;21.50
41940;BMP180;23057;48.554;14.454;2023-05-07T06:30:07;93893.00;;;21.70
41940;BMP180;23057;48.554;14.454;2023-05-07T06:32:40;93906.00;;;21.80
41940;BMP180;23057;48.554;14.454;2023-05-07T06:35:11;93907.00;;;21.90
41940;BMP180;23057;48.554;14.454;2023-05-07T06:37:42;93900.00;;;22.00
41940;BMP180;23057;48.554;14.454;2023-05-07T06:40:13;93911.00;;;21.90
41940;BMP180;23057;48.554;14.454;2023-05-07T06:42:43;93908.00;;;21.90
41940;BMP180;23057;48.554;14.454;2023-05-07T06:45:14;93915.00;;;22.10
41940;BMP180;23057;48.554;14.454;2023-05-07T06:47:45;93911.00;;;22.30
41940;BMP180;23057;48.554;14.454;2023-05-07T06:50:18;93907.00;;;22.40
41940;BMP180;23057;48.554;14.454;2023-05-07T06:52:48;93923.00;;;22.30
41940;BMP180;23057;48.554;14.454;2023-05-07T06:55:19;93921.00;;;22.40
41940;BMP180;23057;48.554;14.454;2023-05-07T06:57:50;93915.00;;;22.40
41940;BMP180;23057;48.554;14.454;2023-05-07T07:00:21;93909.00;;;22.40
41940;BMP180;23057;48.554;14.454;2023-05-07T07:02:53;93910.00;;;22.50
41940;BMP180;23057;48.554;14.454;2023-05-07T07:05:25;93911.00;;;22.50
41940;BMP180;23057;48.554;14.454;2023-05-07T07:07:55;93919.00;;;22.60
41940;BMP180;23057;48.554;14.454;2023-05-07T07:10:26;93921.00;;;22.60
41940;BMP180;23057;48.554;14.454;2023-05-07T07:12:57;93924.00;;;22.60
41940;BMP180;23057;48.554;14.454;2023-05-07T07:15:27;93914.00;;;22.70
41940;BMP180;23057;48.554;14.454;2023-05-07T07:17:58;93922.00;;;22.70
41940;BMP180;23057;48.554;14.454;2023-05-07T07:20:29;93926.00;;;22.80
41940;BMP180;23057;48.554;14.454;2023-05-07T07:23:00;93921.00;;;22.70
41940;BMP180;23057;48.554;14.454;2023-05-07T07:25:31;93924.00;;;22.60
41940;BMP180;23057;48.554;14.454;2023-05-07T07:28:02;93925.00;;;22.50
41940;BMP180;23057;48.554;14.454;2023-05-07T07:30:33;93929.00;;;22.50
41940;BMP180;23057;48.554;14.454;2023-05-07T07:33:03;93921.00;;;22.50
41940;BMP180;23057;48.554;14.454;2023-05-07T07:35:35;93935.00;;;22.50
41940;BMP180;23057;48.554;14.454;2023-05-07T07:38:06;93932.00;;;22.60
41940;BMP180;23057;48.554;14.454;2023-05-07T07:40:36;93935.00;;;22.70
41940;BMP180;23057;48.554;14.454;2023-05-07T07:43:07;93940.00;;;22.90
41940;BMP180;23057;48.554;14.454;2023-05-07T07:45:38;93938.00;;;23.00
41940;BMP180;23057;48.554;14.454;2023-05-07T07:48:10;93949.00;;;23.20
41940;BMP180;23057;48.554;14.454;2023-05-07T07:50:40;93950.00;;;23.30
41940;BMP180;23057;48.554;14.454;2023-05-07T07:53:11;93950.00;;;23.30
41940;BMP180;23057;48.554;14.454;2023-05-07T07:55:42;93946.00;;;23.40
41940;BMP180;23057;48.554;14.454;2023-05-07T07:58:13;93950.00;;;23.40
41940;BMP180;23057;48.554;14.454;2023-05-07T08:00:43;93956.00;;;23.40
41940;BMP180;23057;48.554;14.454;2023-05-07T08:03:14;93953.00;;;23.40
41940;BMP180;23057;48.554;14.454;2023-05-07T08:05:46;93956.00;;;23.50
41940;BMP180;23057;48.554;14.454;2023-05-07T08:08:17;93969.00;;;23.40
41940;BMP180;23057;48.554;14.454;2023-05-07T08:10:48;93955.00;;;23.30
41940;BMP180;23057;48.554;14.454;2023-05-07T08:13:20;93959.00;;;23.30
41940;BMP180;23057;48.554;14.454;2023-05-07T08:15:51;93961.00;;;23.30
41940;BMP180;23057;48.554;14.454;2023-05-07T08:18:22;93958.00;;;23.20
41940;BMP180;23057;48.554;14.454;2023-05-07T08:20:55;93965.00;;;23.30
41940;BMP180;23057;48.554;14.454;2023-05-07T08:23:25;93970.00;;;23.40
41940;BMP180;23057;48.554;14.454;2023-05-07T08:25:56;93966.00;;;23.50
41940;BMP180;23057;48.554;14.454;2023-05-07T08:28:27;93977.00;;;23.60
41940;BMP180;23057;48.554;14.454;2023-05-07T08:30:58;93969.00;;;23.60
41940;BMP180;23057;48.554;14.454;2023-05-07T08:33:30;93954.00;;;23.60
41940;BMP180;23057;48.554;14.454;2023-05-07T08:36:02;93958.00;;;23.70
41940;BMP180;23057;48.554;14.454;2023-05-07T08:38:32;93952.00;;;23.50
41940;BMP180;23057;48.554;14.454;2023-05-07T08:41:03;93963.00;;;23.40
41940;BMP180;23057;48.554;14.454;2023-05-07T08:43:36;93980.00;;;23.30
41940;BMP180;23057;48.554;14.454;2023-05-07T08:46:11;93962.00;;;23.20
41940;BMP180;23057;48.554;14.454;2023-05-07T08:48:50;93964.00;;;22.90
41940;BMP180;23057;48.554;14.454;2023-05-07T08:51:22;93953.00;;;22.70
41940;BMP180;23057;48.554;14.454;2023-05-07T08:53:53;93958.00;;;22.50
41940;BMP180;23057;48.554;14.454;2023-05-07T08:56:23;93964.00;;;22.40
41940;BMP180;23057;48.554;14.454;2023-05-07T08:58:55;93969.00;;;22.40
41940;BMP180;23057;48.554;14.454;2023-05-07T09:01:29;93978.00;;;22.50
41940;BMP180;23057;48.554;14.454;2023-05-07T09:03:59;93980.00;;;22.70
41940;BMP180;23057;48.554;14.454;2023-05-07T09:06:30;93974.00;;;22.90
41940;BMP180;23057;48.554;14.454;2023-05-07T09:09:01;93980.00;;;22.80
41940;BMP180;23057;48.554;14.454;2023-05-07T09:11:35;93973.00;;;22.60
41940;BMP180;23057;48.554;14.454;2023-05-07T09:14:06;93977.00;;;22.50
41940;BMP180;23057;48.554;14.454;2023-05-07T09:16:37;93985.00;;;22.60
41940;BMP180;23057;48.554;14.454;2023-05-07T09:19:07;93987.00;;;22.90
41940;BMP180;23057;48.554;14.454;2023-05-07T09:21:38;93989.00;;;23.30
41940;BMP180;23057;48.554;14.454;2023-05-07T09:24:10;93984.00;;;23.70
41940;BMP180;23057;48.554;14.454;2023-05-07T09:26:40;93979.00;;;23.80
41940;BMP180;23057;48.554;14.454;2023-05-07T09:29:11;93987.00;;;24.10
41940;BMP180;23057;48.554;14.454;2023-05-07T09:31:42;93973.00;;;24.40
41940;BMP180;23057;48.554;14.454;2023-05-07T09:34:13;93975.00;;;24.40
41940;BMP180;23057;48.554;14.454;2023-05-07T09:36:44;93965.00;;;24.40
41940;BMP180;23057;48.554;14.454;2023-05-07T09:39:15;93966.00;;;24.40
41940;BMP180;23057;48.554;14.454;2023-05-07T09:41:47;93970.00;;;24.40
41940;BMP180;23057;48.554;14.454;2023-05-07T09:44:21;93967.00;;;24.30
41940;BMP180;23057;48.554;14.454;2023-05-07T09:46:53;93978.00;;;24.40
41940;BMP180;23057;48.554;14.454;2023-05-07T09:49:29;93973.00;;;24.10
41940;BMP180;23057;48.554;14.454;2023-05-07T09:52:01;93983.00;;;23.90
41940;BMP180;23057;48.554;14.454;2023-05-07T09:54:33;93975.00;;;23.90
41940;BMP180;23057;48.554;14.454;2023-05-07T09:57:10;93976.00;;;24.00
41940;BMP180;23057;48.554;14.454;2023-05-07T09:59:45;93976.00;;;24.10
41940;BMP180;23057;48.554;14.454;2023-05-07T10:02:19;93978.00;;;24.10
41940;BMP180;23057;48.554;14.454;2023-05-07T10:04:50;93986.00;;;24.20
41940;BMP180;23057;48.554;14.454;2023-05-07T10:07:22;93988.00;;;24.30
41940;BMP180;23057;48.554;14.454;2023-05-07T10:09:54;93987.00;;;24.30
41940;BMP180;23057;48.554;14.454;2023-05-07T10:12:26;93995.00;;;24.30
41940;BMP180;23057;48.554;14.454;2023-05-07T10:14:58;94001.00;;;24.30
41940;BMP180;23057;48.554;14.454;2023-05-07T10:17:29;93996.00;;;24.30
41940;BMP180;23057;48.554;14.454;2023-05-07T10:20:00;94000.00;;;24.30
41940;BMP180;23057;48.554;14.454;2023-05-07T10:22:37;93992.00;;;24.40
41940;BMP180;23057;48.554;14.454;2023-05-07T10:25:37;93980.00;;;24.40
41940;BMP180;23057;48.554;14.454;2023-05-07T10:28:09;93981.00;;;24.30
41940;BMP180;23057;48.554;14.454;2023-05-07T10:31:01;93975.00;;;24.00
41940;BMP180;23057;48.554;14.454;2023-05-07T10:33:44;93982.00;;;23.90
41940;BMP180;23057;48.554;14.454;2023-05-07T10:36:17;93978.00;;;23.80
41940;BMP180;23057;48.554;14.454;2023-05-07T10:38:49;93970.00;;;23.70
41940;BMP180;23057;48.554;14.454;2023-05-07T10:41:20;93974.00;;;23.70
41940;BMP180;23057;48.554;14.454;2023-05-07T10:43:52;93974.00;;;23.80
41940;BMP180;23057;48.554;14.454;2023-05-07T10:46:23;93980.00;;;23.70
41940;BMP180;23057;48.554;14.454;2023-05-07T10:51:34;93959.00;;;23.50
41940;BMP180;23057;48.554;14.454;2023-05-07T10:56:43;93958.00;;;23.40
41940;BMP180;23057;48.554;14.454;2023-05-07T11:04:34;93952.00;;;23.50
41940;BMP180;23057;48.554;14.454;2023-05-07T11:10:00;93962.00;;;23.50
41940;BMP180;23057;48.554;14.454;2023-05-07T11:15:37;93956.00;;;23.60
41940;BMP180;23057;48.554;14.454;2023-05-07T11:18:46;93966.00;;;23.90
41940;BMP180;23057;48.554;14.454;2023-05-07T11:21:37;93964.00;;;24.10
41940;BMP180;23057;48.554;14.454;2023-05-07T11:24:10;93965.00;;;24.20
41940;BMP180;23057;48.554;14.454;2023-05-07T11:26:46;93957.00;;;24.00
41940;BMP180;23057;48.554;14.454;2023-05-07T11:29:21;93947.00;;;23.90
41940;BMP180;23057;48.554;14.454;2023-05-07T11:31:54;93942.00;;;23.80
41940;BMP180;23057;48.554;14.454;2023-05-07T11:34:26;93950.00;;;23.70
41940;BMP180;23057;48.554;14.454;2023-05-07T11:36:58;93945.00;;;23.70
41940;BMP180;23057;48.554;14.454;2023-05-07T11:39:31;93952.00;;;23.70
41940;BMP180;23057;48.554;14.454;2023-05-07T11:42:06;93949.00;;;23.80
41940;BMP180;23057;48.554;14.454;2023-05-07T11:44:44;93945.00;;;23.70
41940;BMP180;23057;48.554;14.454;2023-05-07T11:47:20;93941.00;;;23.60
41940;BMP180;23057;48.554;14.454;2023-05-07T11:49:53;93947.00;;;23.60
41940;BMP180;23057;48.554;14.454;2023-05-07T11:52:24;93937.00;;;23.50
41940;BMP180;23057;48.554;14.454;2023-05-07T11:54:57;93938.00;;;23.40
41940;BMP180;23057;48.554;14.454;2023-05-07T11:57:30;93941.00;;;23.50
41940;BMP180;23057;48.554;14.454;2023-05-07T12:00:03;93934.00;;;23.60
41940;BMP180;23057;48.554;14.454;2023-05-07T12:02:35;93932.00;;;23.60
41940;BMP180;23057;48.554;14.454;2023-05-07T12:05:06;93928.00;;;23.60
41940;BMP180;23057;48.554;14.454;2023-05-07T12:07:37;93932.00;;;23.60
41940;BMP180;23057;48.554;14.454;2023-05-07T12:10:08;93930.00;;;23.60
41940;BMP180;23057;48.554;14.454;2023-05-07T12:12:45;93927.00;;;23.60
41940;BMP180;23057;48.554;14.454;2023-05-07T12:15:17;93930.00;;;23.60
41940;BMP180;23057;48.554;14.454;2023-05-07T12:17:48;93935.00;;;23.60
41940;BMP180;23057;48.554;14.454;2023-05-07T12:20:19;93930.00;;;23.60
41940;BMP180;23057;48.554;14.454;2023-05-07T12:22:50;93933.00;;;23.60
41940;BMP180;23057;48.554;14.454;2023-05-07T12:25:22;93938.00;;;23.50
41940;BMP180;23057;48.554;14.454;2023-05-07T12:27:53;93947.00;;;23.50
41940;BMP180;23057;48.554;14.454;2023-05-07T12:30:24;93938.00;;;23.60
41940;BMP180;23057;48.554;14.454;2023-05-07T12:32:55;93937.00;;;23.70
41940;BMP180;23057;48.554;14.454;2023-05-07T12:35:30;93941.00;;;23.70
41940;BMP180;23057;48.554;14.454;2023-05-07T12:38:02;93946.00;;;23.70
41940;BMP180;23057;48.554;14.454;2023-05-07T12:40:36;93934.00;;;23.80
41940;BMP180;23057;48.554;14.454;2023-05-07T12:43:08;93936.00;;;23.90
41940;BMP180;23057;48.554;14.454;2023-05-07T12:45:49;93940.00;;;23.80
41940;BMP180;23057;48.554;14.454;2023-05-07T12:48:21;93937.00;;;23.90
41940;BMP180;23057;48.554;14.454;2023-05-07T12:50:57;93932.00;;;23.70
41940;BMP180;23057;48.554;14.454;2023-05-07T12:53:29;93938.00;;;23.80
41940;BMP180;23057;48.554;14.454;2023-05-07T12:56:01;93940.00;;;24.00
41940;BMP180;23057;48.554;14.454;2023-05-07T12:58:35;93937.00;;;24.10
41940;BMP180;23057;48.554;14.454;2023-05-07T13:01:07;93937.00;;;24.10
41940;BMP180;23057;48.554;14.454;2023-05-07T13:03:39;93941.00;;;24.00
41940;BMP180;23057;48.554;14.454;2023-05-07T13:06:10;93943.00;;;24.00
41940;BMP180;23057;48.554;14.454;2023-05-07T13:08:42;93932.00;;;23.90
41940;BMP180;23057;48.554;14.454;2023-05-07T13:11:13;93929.00;;;23.90
41940;BMP180;23057;48.554;14.454;2023-05-07T13:13:44;93943.00;;;23.80
41940;BMP180;23057;48.554;14.454;2023-05-07T13:16:15;93938.00;;;23.80
41940;BMP180;23057;48.554;14.454;2023-05-07T13:18:45;93919.00;;;23.80
41940;BMP180;23057;48.554;14.454;2023-05-07T13:21:16;93923.00;;;23.80
41940;BMP180;23057;48.554;14.454;2023-05-07T13:23:47;93928.00;;;23.90
41940;BMP180;23057;48.554;14.454;2023-05-07T13:26:18;93921.00;;;24.00
41940;BMP180;23057;48.554;14.454;2023-05-07T13:28:49;93907.00;;;24.10
41940;BMP180;23057;48.554;14.454;2023-05-07T13:31:19;93916.00;;;24.10
41940;BMP180;23057;48.554;14.454;2023-05-07T13:33:51;93923.00;;;24.10
41940;BMP180;23057;48.554;14.454;2023-05-07T13:36:22;93924.00;;;24.00
41940;BMP180;23057;48.554;14.454;2023-05-07T13:38:53;93915.00;;;24.00
41940;BMP180;23057;48.554;14.454;2023-05-07T13:41:24;93910.00;;;23.90
41940;BMP180;23057;48.554;14.454;2023-05-07T13:43:55;93910.00;;;23.80
41940;BMP180;23057;48.554;14.454;2023-05-07T13:46:26;93898.00;;;23.70
41940;BMP180;23057;48.554;14.454;2023-05-07T13:48:57;93913.00;;;23.70
41940;BMP180;23057;48.554;14.454;2023-05-07T13:51:28;93906.00;;;23.60
41940;BMP180;23057;48.554;14.454;2023-05-07T13:53:58;93910.00;;;23.50
41940;BMP180;23057;48.554;14.454;2023-05-07T13:56:29;93905.00;;;23.30
41940;BMP180;23057;48.554;14.454;2023-05-07T13:59:02;93902.00;;;23.30
41940;BMP180;23057;48.554;14.454;2023-05-07T14:01:33;93901.00;;;23.30
41940;BMP180;23057;48.554;14.454;2023-05-07T14:04:04;93899.00;;;23.30
41940;BMP180;23057;48.554;14.454;2023-05-07T14:06:35;93904.00;;;23.20
41940;BMP180;23057;48.554;14.454;2023-05-07T14:09:05;93899.00;;;23.20
41940;BMP180;23057;48.554;14.454;2023-05-07T14:11:36;93905.00;;;23.20
41940;BMP180;23057;48.554;14.454;2023-05-07T14:14:07;93898.00;;;23.20
41940;BMP180;23057;48.554;14.454;2023-05-07T14:16:37;93901.00;;;23.20
41940;BMP180;23057;48.554;14.454;2023-05-07T14:19:08;93896.00;;;23.20
41940;BMP180;23057;48.554;14.454;2023-05-07T14:21:39;93893.00;;;23.40
41940;BMP180;23057;48.554;14.454;2023-05-07T14:24:10;93897.00;;;23.50
41940;BMP180;23057;48.554;14.454;2023-05-07T14:26:41;93895.00;;;23.50
41940;BMP180;23057;48.554;14.454;2023-05-07T14:29:11;93903.00;;;23.40
41940;BMP180;23057;48.554;14.454;2023-05-07T14:31:42;93903.00;;;23.50
41940;BMP180;23057;48.554;14.454;2023-05-07T14:34:13;93901.00;;;23.60
41940;BMP180;23057;48.554;14.454;2023-05-07T14:36:43;93909.00;;;23.60
41940;BMP180;23057;48.554;14.454;2023-05-07T14:39:14;93896.00;;;23.60
41940;BMP180;23057;48.554;14.454;2023-05-07T14:41:45;93902.00;;;23.60